Station info - map view · info · telemetry · weather · raw · status · beacons · messages · bulletins · browse · moving · my account
Callsign, ship name or locator: Clear       
It is possible to search using wildcards (*?) after a prefix. Example: OH*
APRS station F4CQG-9 - show graphs
Map loading...
Mic-E message: En route
Location: 47°09.55' N 6°23.05' E - locator JN37ED68CE - show map - static map
1.8 miles Southwest bearing 205° from Vercel-Villedieu-le-Camp, Département du Doubs, Franche-Comté, France [?]
6.9 miles West bearing 287° from Orchamps-Vennes, Département du Doubs, Franche-Comté, France
67.0 miles North bearing 10° from Genève, Geneva, Geneva, Switzerland
89.5 miles Southwest bearing 230° from Freiburg, Regierungsbezirk Freiburg, Baden-Württemberg, Germany
Last position: 2019-01-23 03:26:37 EST (6h52m ago)
2019-01-23 09:26:37 CET local time at Vercel-Villedieu-le-Camp, France [?]
Altitude: 2254 ft
Position ambiguous: Precision reduced at transmitter by 1 digits, position resolution approximately 202.5 yards.
Course: 183°
Speed: 46 MPH
Device: Yaesu: FTM-100D (rig)
Last path: F4CQG-9>TW0YUL via F5ZHR-4*,F5ZCV-4*,WIDE2*,qAR,HB9AR-10 (good)
Positions stored: 16883
Stations near current position of F4CQG-9 - show more
callsign distance last heard - EST      callsign distance last heard - EST
F1ZAW-B1.8 miles 18°2019-01-23 09:33:47 F5ZVQ8.6 miles 171°2019-01-23 09:33:57
F4GXP-DP14.9 miles 255°2019-01-23 10:06:49 F1ZIF-DP16.8 miles 188°2019-01-23 10:06:49
F8FFP-N17.7 miles 198°2019-01-23 10:15:00 PS-F8FFP17.7 miles 198°2019-01-23 10:00:10
F8FFP-117.7 miles 198°2019-01-14 13:20:02 LFSP17.7 miles 189°2019-01-14 13:15:02
F4FEB-917.7 miles 29°2019-01-20 11:41:29 F5ZCV C17.8 miles 198°2019-01-14 13:11:44
F5ZCV-C17.8 miles 198°2019-01-14 13:11:54 F4FEB-1317.8 miles 27°2019-01-23 10:18:32
F4FEB-717.8 miles 27°2019-01-20 14:33:08 F1ZIN-417.9 miles 39°2019-01-13 20:46:24
F1DLW-917.9 miles 290°2019-01-19 14:47:15 F1DLW18.0 miles 291°2019-01-23 10:04:49
F5ZCV-418.5 miles 179°2019-01-23 10:17:30 FW408418.9 miles 114°2019-01-23 10:16:19
HB9HLI19.1 miles 113°2019-01-17 16:52:12 HB9HLI B19.1 miles 113°2019-01-23 10:08:12
Stations which heard F4CQG-9 directly on radio –
callsign pkts first heard - EST last heard longest (tx => rx) longest at - EST
F1ZWR-3 5 2019-01-03 10:23:39 2019-01-03 10:50:37 JN24JM > JN24DD 37.6 miles 223° 2019-01-03 10:50:37
F8KOX-4 22 2019-01-03 16:27:57 2019-01-17 05:02:16 JN37CE > JN37KT 52.6 miles 35° 2019-01-03 16:28:28
F1ZYB-3 17 2019-01-03 13:37:00 2019-01-03 14:47:41 JN25LP > JN26RE 44.7 miles 37° 2019-01-03 13:37:00
F1ZYS-3 21 2019-01-03 13:27:26 2019-01-03 14:45:40 JN26PJ > JN25GQ 60.8 miles 217° 2019-01-03 14:45:40
HB9XC-4 4 2019-01-03 16:56:06 2019-01-14 11:59:49 JN37EE > JN37OG 39.8 miles 83° 2019-01-03 16:56:06
F6IKY-2 10 2019-01-03 14:50:08 2019-01-03 15:44:36 JN26VW > JN26OP 32.2 miles 231° 2019-01-03 15:44:36
F5ZCV-4 4 2019-01-03 16:15:21 2019-01-21 01:44:43 JN37AE > JN36EV 27.1 miles 139° 2019-01-03 16:15:21
F5ZDQ 1 2019-01-03 10:18:17 2019-01-03 10:18:17 JN24KC > JN23JW 10.3 miles 202° 2019-01-03 10:18:17
F5GJJ-4 1 2019-01-03 13:46:30 2019-01-03 13:46:30 JN25MQ > JN25SH 33.3 miles 136° 2019-01-03 13:46:30
F5ZFL-4 3 2019-01-03 13:25:30 2019-01-03 14:08:45 JN25JN > JN35BT 64.0 miles 74° 2019-01-03 13:25:30
F8CJS 3 2019-01-03 09:29:53 2019-01-03 09:31:50 JN23OM > JN23NI 14.1 miles 210° 2019-01-03 09:29:53
F5ZUN-2 1 2019-01-03 10:08:01 2019-01-03 10:08:01 JN23KW > JN24LA 5.1 miles 27° 2019-01-03 10:08:01
F5ZHR-4 58 2019-01-03 14:49:30 2019-01-23 03:26:37 JN26PK > JN26WX 47.1 miles 38° 2019-01-03 14:49:30
F4FEB-13 1 2019-01-14 12:22:02 2019-01-14 12:22:02 JN37ED > JN37GJ 17.4 miles 28° 2019-01-14 12:22:02
F1ZBF-3 3 2019-01-03 09:53:16 2019-01-03 10:19:42 JN24KC > JN24VC 47.0 miles 89° 2019-01-03 10:19:42
F1IQH-2 1 2019-01-03 15:34:22 2019-01-03 15:34:22 JN26UU > JN27RA 18.0 miles 315° 2019-01-03 15:34:22
F1ZIN-4 10 2019-01-03 16:19:19 2019-01-09 11:44:28 JN37AF > JN37HI 28.4 miles 69° 2019-01-03 16:19:19
HB9F-10 1 2019-01-14 02:02:17 2019-01-14 02:02:17 JN37GD > JN36WN 73.4 miles 123° 2019-01-14 02:02:17
F1GHX-8 3 2019-01-03 11:08:06 2019-01-03 11:13:05 JN24KU > JN24JT 5.2 miles 231° 2019-01-03 11:13:05
HB9ADF-5 2 2019-01-14 02:18:51 2019-01-14 11:55:08 JN37HB > JN36SX 42.7 miles 98° 2019-01-14 11:55:08

Only position packets which were originated by the station are shown here. The range statistics show some extra long hops, because some digipeaters do not correctly add themselves to the digipeater path. Please check the raw packets.
About this site
This page shows real-time information collected from the Automatic Position Reporting System Internet network (APRS-IS). APRS is used by amateur (ham) radio operators to transmit real-time position information, weather data, telemetry and messages over the radio. A vehicle equipped with a GPS receiver, a VHF transmitter or HF transceiver and a small computer device called a tracker transmits it's location, speed and course in a small data packet, which is then received by a nearby iGate receiving site which forwards the packet on the Internet. Systems connected to the Internet can send information on the APRS-IS without a radio transmitter, or collect and display information transmitted anywhere in the world.
FAQ · Blog · Discussion group · Linking to aprs.fi · AIS sites · Service status · Database statistics · Advertising on aprs.fi · Technical details · API · Change log · Planned changes · Credits and thanks · Terms Of Service · iPhone/iPad APRS